Time,TemperatureF,DewpointF,PressureIn,WindDirection,WindDirectionDegrees,WindSpeedMPH,WindSpeedGustMPH,Humidity,HourlyPrecipIn,Conditions,Clouds,dailyrainin,SoftwareType,DateUTC
2013-03-30 00:02:00,74.3,39.1,29.97,ESE,113,3.0,3.0,28,0.00,,,0.00,Wunderground v.1.15,2013-03-30 07:02:00,
2013-03-30 00:07:00,74.3,39.1,29.97,ESE,119,1.0,3.0,28,0.00,,,0.00,Wunderground v.1.15,2013-03-30 07:07:00,
2013-03-30 00:12:00,74.2,39.0,29.97,ESE,121,1.0,2.0,28,0.00,,,0.00,Wunderground v.1.15,2013-03-30 07:12:00,
2013-03-30 00:18:00,74.1,39.8,29.97,ESE,122,0.0,2.0,29,0.00,,,0.00,Wunderground v.1.15,2013-03-30 07:18:00,
2013-03-30 00:23:00,74.1,39.8,29.97,ESE,115,0.0,1.0,29,0.00,,,0.00,Wunderground v.1.15,2013-03-30 07:23:00,
2013-03-30 00:29:00,74.2,39.0,29.97,ESE,120,0.0,1.0,28,0.00,,,0.00,Wunderground v.1.15,2013-03-30 07:29:00,
2013-03-30 00:34:00,74.4,39.2,29.97,ESE,110,1.0,1.0,28,0.00,,,0.00,Wunderground v.1.15,2013-03-30 07:34:00,
2013-03-30 00:39:00,74.6,39.3,29.97,SE,134,1.0,1.0,28,0.00,,,0.00,Wunderground v.1.15,2013-03-30 07:39:00,
2013-03-30 00:44:00,74.8,38.6,29.97,ESE,118,0.0,1.0,27,0.00,,,0.00,Wunderground v.1.15,2013-03-30 07:44:00,
2013-03-30 00:50:00,74.7,38.5,29.97,ESE,123,1.0,1.0,27,0.00,,,0.00,Wunderground v.1.15,2013-03-30 07:50:00,
2013-03-30 00:55:00,74.9,38.7,29.97,SE,129,1.0,1.0,27,0.00,,,0.00,Wunderground v.1.15,2013-03-30 07:55:00,
2013-03-30 01:00:00,74.7,39.4,29.97,SE,130,1.0,1.0,28,0.00,,,0.00,Wunderground v.1.15,2013-03-30 08:00:00,
2013-03-30 01:06:00,74.4,39.2,29.97,ESE,123,1.0,1.0,28,0.00,,,0.00,Wunderground v.1.15,2013-03-30 08:06:00,
2013-03-30 01:11:00,74.1,38.9,29.97,ESE,115,0.0,1.0,28,0.00,,,0.00,Wunderground v.1.15,2013-03-30 08:11:00,
2013-03-30 01:16:00,74.0,39.7,29.97,ESE,120,0.0,1.0,29,0.00,,,0.00,Wunderground v.1.15,2013-03-30 08:16:00,
2013-03-30 01:21:00,73.7,39.5,29.97,ESE,120,0.0,0.0,29,0.00,,,0.00,Wunderground v.1.15,2013-03-30 08:21:00,
2013-03-30 01:27:00,72.6,44.8,29.97,West,266,0.0,2.0,37,0.00,,,0.00,Wunderground v.1.15,2013-03-30 08:27:00,
2013-03-30 01:33:00,71.5,47.2,29.97,WNW,286,0.0,0.0,42,0.00,,,0.00,Wunderground v.1.15,2013-03-30 08:33:00,
2013-03-30 01:39:00,70.1,48.4,29.96,West,274,0.0,1.0,46,0.00,,,0.00,Wunderground v.1.15,2013-03-30 08:39:00,
2013-03-30 01:44:00,69.3,43.9,29.96,West,274,0.0,0.0,40,0.00,,,0.00,Wunderground v.1.15,2013-03-30 08:44:00,
2013-03-30 01:49:00,69.1,47.4,29.96,West,277,0.0,1.0,46,0.00,,,0.00,Wunderground v.1.15,2013-03-30 08:49:00,
2013-03-30 01:55:00,68.4,46.8,29.96,West,277,0.0,0.0,46,0.00,,,0.00,Wunderground v.1.15,2013-03-30 08:55:00,
2013-03-30 02:00:00,68.2,45.4,29.96,West,275,0.0,0.0,44,0.00,,,0.00,Wunderground v.1.15,2013-03-30 09:00:00,
2013-03-30 02:05:00,68.3,45.5,29.96,West,276,0.0,0.0,44,0.00,,,0.00,Wunderground v.1.15,2013-03-30 09:05:00,
2013-03-30 02:10:00,68.4,45.0,29.95,ESE,115,1.0,1.0,43,0.00,,,0.00,Wunderground v.1.15,2013-03-30 09:10:00,
2013-03-30 02:15:00,68.6,45.2,29.95,ESE,114,0.0,1.0,43,0.00,,,0.00,Wunderground v.1.15,2013-03-30 09:15:00,
2013-03-30 02:20:00,68.7,44.7,29.96,ESE,115,0.0,1.0,42,0.00,,,0.00,Wunderground v.1.15,2013-03-30 09:20:00,
2013-03-30 02:25:00,68.8,44.1,29.96,ESE,123,0.0,1.0,41,0.00,,,0.00,Wunderground v.1.15,2013-03-30 09:25:00,
2013-03-30 02:30:00,68.9,42.9,29.96,SE,134,1.0,1.0,39,0.00,,,0.00,Wunderground v.1.15,2013-03-30 09:30:00,
2013-03-30 02:34:00,69.3,42.6,29.96,ESE,123,0.0,1.0,38,0.00,,,0.00,Wunderground v.1.15,2013-03-30 09:34:00,
2013-03-30 02:39:00,69.6,42.2,29.96,ESE,122,0.0,1.0,37,0.00,,,0.00,Wunderground v.1.15,2013-03-30 09:39:00,
2013-03-30 02:44:00,69.8,41.6,29.96,ESE,120,0.0,0.0,36,0.00,,,0.00,Wunderground v.1.15,2013-03-30 09:44:00,
2013-03-30 02:49:00,69.5,42.1,29.96,ESE,120,0.0,0.0,37,0.00,,,0.00,Wunderground v.1.15,2013-03-30 09:49:00,
2013-03-30 02:54:00,69.6,40.0,29.96,ESE,114,1.0,2.0,34,0.00,,,0.00,Wunderground v.1.15,2013-03-30 09:54:00,
2013-03-30 02:59:00,69.9,41.0,29.96,East,100,0.0,2.0,35,0.00,,,0.00,Wunderground v.1.15,2013-03-30 09:59:00,
2013-03-30 03:04:00,69.9,40.2,29.96,East,100,0.0,0.0,34,0.00,,,0.00,Wunderground v.1.15,2013-03-30 10:04:00,
2013-03-30 03:09:00,70.3,39.8,29.95,East,101,0.0,1.0,33,0.00,,,0.00,Wunderground v.1.15,2013-03-30 10:09:00,
2013-03-30 03:14:00,69.8,46.3,29.95,North,353,0.0,1.0,43,0.00,,,0.00,Wunderground v.1.15,2013-03-30 10:14:00,
2013-03-30 03:19:00,68.4,47.9,29.95,North,355,1.0,2.0,48,0.00,,,0.00,Wunderground v.1.15,2013-03-30 10:19:00,
2013-03-30 03:24:00,67.2,45.7,29.95,North,8,0.0,2.0,46,0.00,,,0.00,Wunderground v.1.15,2013-03-30 10:24:00,
2013-03-30 03:29:00,66.7,44.7,29.95,North,8,0.0,2.0,45,0.00,,,0.00,Wunderground v.1.15,2013-03-30 10:29:00,
2013-03-30 03:34:00,66.5,43.9,29.94,North,8,0.0,1.0,44,0.00,,,0.00,Wunderground v.1.15,2013-03-30 10:34:00,
2013-03-30 03:39:00,66.6,43.4,29.94,North,8,0.0,1.0,43,0.00,,,0.00,Wunderground v.1.15,2013-03-30 10:39:00,
2013-03-30 03:44:00,67.0,43.1,29.94,NNE,26,0.0,1.0,42,0.00,,,0.00,Wunderground v.1.15,2013-03-30 10:44:00,
2013-03-30 03:49:00,67.1,43.8,29.94,NNE,26,0.0,1.0,43,0.00,,,0.00,Wunderground v.1.15,2013-03-30 10:49:00,
2013-03-30 03:54:00,66.7,44.7,29.95,NNE,26,0.0,0.0,45,0.00,,,0.00,Wunderground v.1.15,2013-03-30 10:54:00,
2013-03-30 03:59:00,65.7,44.9,29.95,West,278,0.0,1.0,47,0.00,,,0.00,Wunderground v.1.15,2013-03-30 10:59:00,
2013-03-30 04:04:00,65.6,44.8,29.95,North,352,0.0,2.0,47,0.00,,,0.00,Wunderground v.1.15,2013-03-30 11:04:00,
2013-03-30 04:09:00,65.5,45.8,29.95,NW,309,0.0,2.0,49,0.00,,,0.00,Wunderground v.1.15,2013-03-30 11:09:00,
2013-03-30 04:14:00,65.2,43.9,29.94,West,277,0.0,1.0,46,0.00,,,0.00,Wunderground v.1.15,2013-03-30 11:14:00,
2013-03-30 04:19:00,65.3,45.1,29.95,ENE,60,0.0,1.0,48,0.00,,,0.00,Wunderground v.1.15,2013-03-30 11:19:00,
2013-03-30 04:25:00,65.3,44.5,29.95,ENE,61,0.0,0.0,47,0.00,,,0.00,Wunderground v.1.15,2013-03-30 11:25:00,
2013-03-30 04:30:00,65.5,44.7,29.95,ENE,61,0.0,1.0,47,0.00,,,0.00,Wunderground v.1.15,2013-03-30 11:30:00,
2013-03-30 04:35:00,65.9,44.5,29.95,East,93,1.0,1.0,46,0.00,,,0.00,Wunderground v.1.15,2013-03-30 11:35:00,
2013-03-30 04:40:00,66.4,43.8,29.94,East,80,0.0,2.0,44,0.00,,,0.00,Wunderground v.1.15,2013-03-30 11:40:00,
2013-03-30 04:45:00,66.8,44.2,29.94,East,81,0.0,1.0,44,0.00,,,0.00,Wunderground v.1.15,2013-03-30 11:45:00,
2013-03-30 04:50:00,66.8,44.2,29.94,East,81,0.0,0.0,44,0.00,,,0.00,Wunderground v.1.15,2013-03-30 11:50:00,
2013-03-30 04:55:00,66.7,44.1,29.94,East,81,0.0,0.0,44,0.00,,,0.00,Wunderground v.1.15,2013-03-30 11:55:00,
2013-03-30 05:00:00,66.6,44.0,29.95,East,80,0.0,0.0,44,0.00,,,0.00,Wunderground v.1.15,2013-03-30 12:00:00,
2013-03-30 05:05:00,66.7,43.5,29.95,East,81,0.0,0.0,43,0.00,,,0.00,Wunderground v.1.15,2013-03-30 12:05:00,
2013-03-30 05:10:00,67.0,43.1,29.94,East,79,0.0,2.0,42,0.00,,,0.00,Wunderground v.1.15,2013-03-30 12:10:00,
2013-03-30 05:15:00,67.1,43.8,29.95,NW,309,1.0,1.0,43,0.00,,,0.00,Wunderground v.1.15,2013-03-30 12:15:00,
2013-03-30 05:20:00,65.9,49.8,29.95,WNW,285,0.0,3.0,56,0.00,,,0.00,Wunderground v.1.15,2013-03-30 12:20:00,
2013-03-30 05:25:00,65.2,47.1,29.95,NE,38,0.0,1.0,52,0.00,,,0.00,Wunderground v.1.15,2013-03-30 12:25:00,
2013-03-30 05:30:00,65.4,47.3,29.95,NE,40,0.0,0.0,52,0.00,,,0.00,Wunderground v.1.15,2013-03-30 12:30:00,
2013-03-30 05:35:00,65.6,45.9,29.95,East,84,0.0,1.0,49,0.00,,,0.00,Wunderground v.1.15,2013-03-30 12:35:00,
2013-03-30 05:40:00,65.9,45.6,29.94,ENE,77,0.0,0.0,48,0.00,,,0.00,Wunderground v.1.15,2013-03-30 12:40:00,
2013-03-30 05:45:00,66.0,44.6,29.94,ENE,77,0.0,1.0,46,0.00,,,0.00,Wunderground v.1.15,2013-03-30 12:45:00,
2013-03-30 05:50:00,66.5,43.9,29.94,ENE,69,0.0,0.0,44,0.00,,,0.00,Wunderground v.1.15,2013-03-30 12:50:00,
2013-03-30 05:55:00,66.8,43.6,29.95,ENE,70,0.0,1.0,43,0.00,,,0.00,Wunderground v.1.15,2013-03-30 12:55:00,
2013-03-30 06:00:00,66.9,46.0,29.95,ENE,63,0.0,1.0,47,0.00,,,0.00,Wunderground v.1.15,2013-03-30 13:00:00,
2013-03-30 06:05:00,66.6,45.2,29.95,ENE,63,0.0,1.0,46,0.00,,,0.00,Wunderground v.1.15,2013-03-30 13:05:00,
2013-03-30 06:10:00,66.3,43.7,29.95,ENE,63,0.0,0.0,44,0.00,,,0.00,Wunderground v.1.15,2013-03-30 13:10:00,
2013-03-30 06:15:00,66.5,44.5,29.96,ENE,63,0.0,0.0,45,0.00,,,0.00,Wunderground v.1.15,2013-03-30 13:15:00,
2013-03-30 06:20:00,66.4,44.4,29.96,ENE,63,0.0,0.0,45,0.00,,,0.00,Wunderground v.1.15,2013-03-30 13:20:00,
2013-03-30 06:25:00,66.7,44.1,29.96,ENE,63,0.0,0.0,44,0.00,,,0.00,Wunderground v.1.15,2013-03-30 13:25:00,
2013-03-30 06:30:00,66.8,44.8,29.96,ENE,63,0.0,0.0,45,0.00,,,0.00,Wunderground v.1.15,2013-03-30 13:30:00,
2013-03-30 06:35:00,66.8,43.0,29.96,ESE,108,0.0,1.0,42,0.00,,,0.00,Wunderground v.1.15,2013-03-30 13:35:00,
2013-03-30 06:40:00,67.4,42.9,29.95,ENE,77,0.0,0.0,41,0.00,,,0.00,Wunderground v.1.15,2013-03-30 13:40:00,
2013-03-30 06:45:00,67.3,44.6,29.95,ENE,67,0.0,1.0,44,0.00,,,0.00,Wunderground v.1.15,2013-03-30 13:45:00,
2013-03-30 06:50:00,67.2,42.0,29.95,East,95,1.0,1.0,40,0.00,,,0.00,Wunderground v.1.15,2013-03-30 13:50:00,
2013-03-30 06:55:00,67.9,41.3,29.96,ESE,113,1.0,1.0,38,0.00,,,0.00,Wunderground v.1.15,2013-03-30 13:55:00,
2013-03-30 07:00:00,68.0,42.1,29.96,ESE,116,0.0,1.0,39,0.00,,,0.00,Wunderground v.1.15,2013-03-30 14:00:00,
2013-03-30 07:05:00,68.0,42.1,29.96,ESE,105,0.0,2.0,39,0.00,,,0.00,Wunderground v.1.15,2013-03-30 14:05:00,
2013-03-30 07:10:00,68.0,41.4,29.96,ESE,107,1.0,1.0,38,0.00,,,0.00,Wunderground v.1.15,2013-03-30 14:10:00,
2013-03-30 07:15:00,68.3,41.0,29.97,SE,136,0.0,2.0,37,0.00,,,0.00,Wunderground v.1.15,2013-03-30 14:15:00,
2013-03-30 07:20:00,68.3,42.4,29.97,SE,126,0.0,1.0,39,0.00,,,0.00,Wunderground v.1.15,2013-03-30 14:20:00,
2013-03-30 07:25:00,68.4,41.1,29.96,ESE,109,1.0,2.0,37,0.00,,,0.00,Wunderground v.1.15,2013-03-30 14:25:00,
2013-03-30 07:30:00,68.8,41.5,29.96,East,89,0.0,1.0,37,0.00,,,0.00,Wunderground v.1.15,2013-03-30 14:30:00,
2013-03-30 07:35:00,67.5,50.3,29.97,NNE,12,5.0,7.0,54,0.00,,,0.00,Wunderground v.1.15,2013-03-30 14:35:00,
2013-03-30 07:40:00,65.5,46.9,29.97,NW,326,0.0,2.0,51,0.00,,,0.00,Wunderground v.1.15,2013-03-30 14:40:00,
2013-03-30 07:45:00,64.7,46.7,29.97,North,354,0.0,2.0,52,0.00,,,0.00,Wunderground v.1.15,2013-03-30 14:45:00,
2013-03-30 07:50:00,64.5,44.9,29.97,North,8,0.0,0.0,49,0.00,,,0.00,Wunderground v.1.15,2013-03-30 14:50:00,
2013-03-30 07:55:00,64.7,44.5,29.97,North,8,1.0,2.0,48,0.00,,,0.00,Wunderground v.1.15,2013-03-30 14:55:00,
2013-03-30 08:00:00,64.8,44.6,29.97,NNW,347,0.0,1.0,48,0.00,,,0.00,Wunderground v.1.15,2013-03-30 15:00:00,
2013-03-30 08:05:00,65.1,44.4,29.97,NNW,347,1.0,1.0,47,0.00,,,0.00,Wunderground v.1.15,2013-03-30 15:05:00,
2013-03-30 08:10:00,65.3,45.6,29.97,NNW,332,1.0,1.0,49,0.00,,,0.00,Wunderground v.1.15,2013-03-30 15:10:00,
2013-03-30 08:15:00,65.5,45.8,29.97,WSW,253,0.0,1.0,49,0.00,,,0.00,Wunderground v.1.15,2013-03-30 15:15:00,
2013-03-30 08:20:00,66.0,45.7,29.97,NNW,339,1.0,1.0,48,0.00,,,0.00,Wunderground v.1.15,2013-03-30 15:20:00,
2013-03-30 08:25:00,66.4,46.1,29.98,WSW,237,0.0,1.0,48,0.00,,,0.00,Wunderground v.1.15,2013-03-30 15:25:00,
2013-03-30 08:30:00,66.9,47.1,29.98,WSW,239,0.0,1.0,49,0.00,,,0.00,Wunderground v.1.15,2013-03-30 15:30:00,
2013-03-30 08:35:00,67.6,46.1,29.98,ENE,69,0.0,1.0,46,0.00,,,0.00,Wunderground v.1.15,2013-03-30 15:35:00,
2013-03-30 08:40:00,68.2,46.6,29.98,SSW,204,0.0,0.0,46,0.00,,,0.00,Wunderground v.1.15,2013-03-30 15:40:00,
2013-03-30 08:45:00,69.0,45.6,29.98,ENE,65,2.0,2.0,43,0.00,,,0.00,Wunderground v.1.15,2013-03-30 15:45:00,
2013-03-30 08:50:00,69.6,45.5,29.98,East,89,2.0,2.0,42,0.00,,,0.00,Wunderground v.1.15,2013-03-30 15:50:00,
2013-03-30 08:55:00,70.3,45.5,29.98,NNW,333,0.0,3.0,41,0.00,,,0.00,Wunderground v.1.15,2013-03-30 15:55:00,
2013-03-30 09:00:00,70.8,45.9,29.98,North,6,3.0,4.0,41,0.00,,,0.00,Wunderground v.1.15,2013-03-30 16:00:00,
2013-03-30 09:06:00,71.4,46.5,29.98,North,4,0.0,4.0,41,0.00,,,0.00,Wunderground v.1.15,2013-03-30 16:06:00,
2013-03-30 09:11:00,72.0,45.0,29.98,NNE,12,1.0,2.0,38,0.00,,,0.00,Wunderground v.1.15,2013-03-30 16:11:00,
2013-03-30 09:16:00,72.5,44.7,29.98,NW,321,0.0,4.0,37,0.00,,,0.00,Wunderground v.1.15,2013-03-30 16:16:00,
2013-03-30 09:21:00,73.0,44.5,29.98,NW,321,0.0,1.0,36,0.00,,,0.00,Wunderground v.1.15,2013-03-30 16:21:00,
2013-03-30 09:26:00,73.4,44.1,29.98,NW,323,0.0,1.0,35,0.00,,,0.00,Wunderground v.1.15,2013-03-30 16:26:00,
2013-03-30 09:31:00,74.2,45.5,29.99,NW,323,0.0,0.0,36,0.00,,,0.00,Wunderground v.1.15,2013-03-30 16:31:00,
2013-03-30 09:36:00,74.8,44.5,29.98,NNW,339,2.0,2.0,34,0.00,,,0.00,Wunderground v.1.15,2013-03-30 16:36:00,
2013-03-30 09:41:00,74.7,44.5,29.98,WNW,282,1.0,2.0,34,0.00,,,0.00,Wunderground v.1.15,2013-03-30 16:41:00,
2013-03-30 09:46:00,74.7,46.0,29.98,WNW,302,2.0,3.0,36,0.00,,,0.00,Wunderground v.1.15,2013-03-30 16:46:00,
2013-03-30 09:51:00,74.5,46.5,29.98,NNW,333,1.0,3.0,37,0.00,,,0.00,Wunderground v.1.15,2013-03-30 16:51:00,
2013-03-30 09:56:00,74.7,47.4,29.98,WNW,288,1.0,3.0,38,0.00,,,0.00,Wunderground v.1.15,2013-03-30 16:56:00,
2013-03-30 10:01:00,74.9,47.6,29.98,SW,229,1.0,1.0,38,0.00,,,0.00,Wunderground v.1.15,2013-03-30 17:01:00,
2013-03-30 10:06:00,75.0,47.7,29.98,SW,233,4.0,6.0,38,0.00,,,0.00,Wunderground v.1.15,2013-03-30 17:06:00,
2013-03-30 10:11:00,75.0,48.4,29.99,SE,141,0.0,4.0,39,0.00,,,0.00,Wunderground v.1.15,2013-03-30 17:11:00,
2013-03-30 10:17:00,75.3,47.9,29.98,West,271,4.0,4.0,38,0.00,,,0.00,Wunderground v.1.15,2013-03-30 17:17:00,
2013-03-30 10:22:00,75.8,44.6,29.99,West,270,1.0,2.0,33,0.00,,,0.00,Wunderground v.1.15,2013-03-30 17:22:00,
2013-03-30 10:27:00,76.4,44.4,29.99,West,259,2.0,3.0,32,0.00,,,0.00,Wunderground v.1.15,2013-03-30 17:27:00,
2013-03-30 10:32:00,76.6,44.5,29.99,West,263,2.0,3.0,32,0.00,,,0.00,Wunderground v.1.15,2013-03-30 17:32:00,
2013-03-30 10:37:00,76.9,45.6,29.99,West,270,2.0,3.0,33,0.00,,,0.00,Wunderground v.1.15,2013-03-30 17:37:00,
2013-03-30 10:42:00,77.8,43.9,29.99,West,259,0.0,1.0,30,0.00,,,0.00,Wunderground v.1.15,2013-03-30 17:42:00,
2013-03-30 10:47:00,78.5,44.5,29.99,NW,309,1.0,3.0,30,0.00,,,0.00,Wunderground v.1.15,2013-03-30 17:47:00,
2013-03-30 10:52:00,79.6,45.4,29.99,North,356,1.0,3.0,30,0.00,,,0.00,Wunderground v.1.15,2013-03-30 17:52:00,
2013-03-30 10:57:00,80.6,46.3,29.99,NW,326,0.0,3.0,30,0.00,,,0.00,Wunderground v.1.15,2013-03-30 17:57:00,
2013-03-30 11:02:00,80.8,41.7,29.99,WSW,250,2.0,4.0,25,0.00,,,0.00,Wunderground v.1.15,2013-03-30 18:02:00,
2013-03-30 11:07:00,81.2,41.0,29.99,SW,231,0.0,4.0,24,0.00,,,0.00,Wunderground v.1.15,2013-03-30 18:07:00,
2013-03-30 11:12:00,82.3,43.0,29.99,West,267,2.0,4.0,25,0.00,,,0.00,Wunderground v.1.15,2013-03-30 18:12:00,
2013-03-30 11:17:00,82.4,42.0,29.98,WNW,293,3.0,6.0,24,0.00,,,0.00,Wunderground v.1.15,2013-03-30 18:17:00,
2013-03-30 11:22:00,82.1,42.8,29.98,WSW,255,2.0,4.0,25,0.00,,,0.00,Wunderground v.1.15,2013-03-30 18:22:00,
2013-03-30 11:27:00,82.3,39.6,29.98,WNW,283,3.0,4.0,22,0.00,,,0.00,Wunderground v.1.15,2013-03-30 18:27:00,
2013-03-30 11:32:00,82.0,37.0,29.98,WNW,283,2.0,3.0,20,0.00,,,0.00,Wunderground v.1.15,2013-03-30 18:32:00,
2013-03-30 11:37:00,82.5,37.4,29.98,North,358,1.0,3.0,20,0.00,,,0.00,Wunderground v.1.15,2013-03-30 18:37:00,
2013-03-30 11:42:00,82.7,40.0,29.98,WNW,300,1.0,5.0,22,0.00,,,0.00,Wunderground v.1.15,2013-03-30 18:42:00,
2013-03-30 11:47:00,83.4,38.1,29.98,West,260,3.0,5.0,20,0.00,,,0.00,Wunderground v.1.15,2013-03-30 18:47:00,
2013-03-30 11:52:00,83.9,38.5,29.98,SW,236,0.0,5.0,20,0.00,,,0.00,Wunderground v.1.15,2013-03-30 18:52:00,
2013-03-30 11:57:00,83.6,38.3,29.98,SW,232,4.0,6.0,20,0.00,,,0.00,Wunderground v.1.15,2013-03-30 18:57:00,
2013-03-30 12:02:00,83.4,38.1,29.98,NW,322,1.0,7.0,20,0.00,,,0.00,Wunderground v.1.15,2013-03-30 19:02:00,
2013-03-30 12:07:00,83.6,39.5,29.97,West,274,4.0,7.0,21,0.00,,,0.00,Wunderground v.1.15,2013-03-30 19:07:00,
2013-03-30 12:12:00,84.1,37.4,29.97,West,272,5.0,8.0,19,0.00,,,0.00,Wunderground v.1.15,2013-03-30 19:12:00,
2013-03-30 12:17:00,84.3,38.9,29.97,West,263,7.0,8.0,20,0.00,,,0.00,Wunderground v.1.15,2013-03-30 19:17:00,
2013-03-30 12:23:00,84.3,37.5,29.97,WNW,288,2.0,6.0,19,0.00,,,0.00,Wunderground v.1.15,2013-03-30 19:23:00,
2013-03-30 12:28:00,84.3,37.5,29.97,NW,311,5.0,9.0,19,0.00,,,0.00,Wunderground v.1.15,2013-03-30 19:28:00,
2013-03-30 12:33:00,84.7,37.9,29.97,West,277,2.0,10.0,19,0.00,,,0.00,Wunderground v.1.15,2013-03-30 19:33:00,
2013-03-30 12:38:00,84.6,39.1,29.97,WSW,258,5.0,10.0,20,0.00,,,0.00,Wunderground v.1.15,2013-03-30 19:38:00,
2013-03-30 12:43:00,84.6,37.8,29.96,WSW,250,3.0,5.0,19,0.00,,,0.00,Wunderground v.1.15,2013-03-30 19:43:00,
2013-03-30 12:48:00,84.6,39.1,29.96,WSW,255,3.0,6.0,20,0.00,,,0.00,Wunderground v.1.15,2013-03-30 19:48:00,
2013-03-30 12:53:00,85.0,38.1,29.96,West,281,2.0,7.0,19,0.00,,,0.00,Wunderground v.1.15,2013-03-30 19:53:00,
2013-03-30 12:58:00,85.3,38.4,29.96,West,266,4.0,7.0,19,0.00,,,0.00,Wunderground v.1.15,2013-03-30 19:58:00,
2013-03-30 13:03:00,85.4,38.4,29.96,West,281,4.0,7.0,19,0.00,,,0.00,Wunderground v.1.15,2013-03-30 20:03:00,
2013-03-30 13:08:00,85.3,38.4,29.96,WNW,287,1.0,8.0,19,0.00,,,0.00,Wunderground v.1.15,2013-03-30 20:08:00,
2013-03-30 13:13:00,85.7,37.3,29.95,West,271,4.0,7.0,18,0.00,,,0.00,Wunderground v.1.15,2013-03-30 20:13:00,
2013-03-30 13:18:00,86.1,36.2,29.95,West,259,5.0,7.0,17,0.00,,,0.00,Wunderground v.1.15,2013-03-30 20:18:00,
2013-03-30 13:23:00,86.5,38.0,29.95,West,276,5.0,10.0,18,0.00,,,0.00,Wunderground v.1.15,2013-03-30 20:23:00,
2013-03-30 13:28:00,86.4,39.3,29.94,ESE,114,3.0,10.0,19,0.00,,,0.00,Wunderground v.1.15,2013-03-30 20:28:00,
2013-03-30 13:33:00,86.8,38.2,29.94,WSW,257,10.0,11.0,18,0.00,,,0.00,Wunderground v.1.15,2013-03-30 20:33:00,
2013-03-30 13:38:00,86.7,36.7,29.94,West,269,4.0,11.0,17,0.00,,,0.00,Wunderground v.1.15,2013-03-30 20:38:00,
2013-03-30 13:43:00,86.7,38.1,29.94,WSW,258,5.0,9.0,18,0.00,,,0.00,Wunderground v.1.15,2013-03-30 20:43:00,
2013-03-30 13:48:00,87.0,38.4,29.93,WNW,290,6.0,9.0,18,0.00,,,0.00,Wunderground v.1.15,2013-03-30 20:48:00,
2013-03-30 13:53:00,87.3,38.6,29.93,West,264,3.0,11.0,18,0.00,,,0.00,Wunderground v.1.15,2013-03-30 20:53:00,
2013-03-30 13:58:00,87.8,39.0,29.93,WSW,240,8.0,14.0,18,0.00,,,0.00,Wunderground v.1.15,2013-03-30 20:58:00,
2013-03-30 14:03:00,88.0,39.2,29.93,West,265,6.0,11.0,18,0.00,,,0.00,Wunderground v.1.15,2013-03-30 21:03:00,
2013-03-30 14:08:00,87.9,37.6,29.93,WSW,239,8.0,11.0,17,0.00,,,0.00,Wunderground v.1.15,2013-03-30 21:08:00,
2013-03-30 14:14:00,88.6,38.2,29.93,West,273,9.0,9.0,17,0.00,,,0.00,Wunderground v.1.15,2013-03-30 21:14:00,
2013-03-30 14:19:00,88.7,36.7,29.92,West,278,2.0,9.0,16,0.00,,,0.00,Wunderground v.1.15,2013-03-30 21:19:00,
2013-03-30 14:24:00,88.8,36.8,29.92,WSW,248,6.0,12.0,16,0.00,,,0.00,Wunderground v.1.15,2013-03-30 21:24:00,
2013-03-30 14:29:00,89.3,37.2,29.92,West,278,5.0,12.0,16,0.00,,,0.00,Wunderground v.1.15,2013-03-30 21:29:00,
2013-03-30 14:34:00,88.7,35.1,29.92,West,273,4.0,9.0,15,0.00,,,0.00,Wunderground v.1.15,2013-03-30 21:34:00,
2013-03-30 14:39:00,88.7,36.7,29.91,West,269,6.0,12.0,16,0.00,,,0.00,Wunderground v.1.15,2013-03-30 21:39:00,
2013-03-30 14:44:00,88.6,36.7,29.91,West,272,10.0,12.0,16,0.00,,,0.00,Wunderground v.1.15,2013-03-30 21:44:00,
2013-03-30 14:49:00,88.5,34.9,29.91,West,276,9.0,12.0,15,0.00,,,0.00,Wunderground v.1.15,2013-03-30 21:49:00,
2013-03-30 14:54:00,88.8,35.2,29.91,SSW,200,1.0,11.0,15,0.00,,,0.00,Wunderground v.1.15,2013-03-30 21:54:00,
2013-03-30 14:59:00,89.1,35.4,29.91,SW,235,8.0,11.0,15,0.00,,,0.00,Wunderground v.1.15,2013-03-30 21:59:00,
2013-03-30 15:04:00,89.2,33.8,29.90,WSW,255,6.0,11.0,14,0.00,,,0.00,Wunderground v.1.15,2013-03-30 22:04:00,
2013-03-30 15:09:00,89.3,33.8,29.90,SW,222,3.0,12.0,14,0.00,,,0.00,Wunderground v.1.15,2013-03-30 22:09:00,
2013-03-30 15:14:00,89.6,34.1,29.90,SW,235,4.0,10.0,14,0.00,,,0.00,Wunderground v.1.15,2013-03-30 22:14:00,
2013-03-30 15:19:00,89.5,34.0,29.90,West,262,6.0,16.0,14,0.00,,,0.00,Wunderground v.1.15,2013-03-30 22:19:00,
2013-03-30 15:24:00,89.3,32.0,29.90,WNW,285,7.0,12.0,13,0.00,,,0.00,Wunderground v.1.15,2013-03-30 22:24:00,
2013-03-30 15:29:00,89.5,32.2,29.89,SW,230,6.0,13.0,13,0.00,,,0.00,Wunderground v.1.15,2013-03-30 22:29:00,
2013-03-30 15:34:00,89.9,32.5,29.89,West,278,3.0,9.0,13,0.00,,,0.00,Wunderground v.1.15,2013-03-30 22:34:00,
2013-03-30 15:39:00,90.0,34.4,29.89,WNW,285,6.0,12.0,14,0.00,,,0.00,Wunderground v.1.15,2013-03-30 22:39:00,
2013-03-30 15:44:00,89.8,30.4,29.89,West,280,3.0,11.0,12,0.00,,,0.00,Wunderground v.1.15,2013-03-30 22:44:00,
2013-03-30 15:49:00,89.9,30.5,29.88,WSW,246,8.0,11.0,12,0.00,,,0.00,Wunderground v.1.15,2013-03-30 22:49:00,
2013-03-30 15:54:00,89.7,28.2,29.88,West,270,6.0,10.0,11,0.00,,,0.00,Wunderground v.1.15,2013-03-30 22:54:00,
2013-03-30 15:59:00,90.1,28.5,29.88,West,269,4.0,11.0,11,0.00,,,0.00,Wunderground v.1.15,2013-03-30 22:59:00,
2013-03-30 16:04:00,90.1,28.5,29.88,West,262,4.0,10.0,11,0.00,,,0.00,Wunderground v.1.15,2013-03-30 23:04:00,
2013-03-30 16:09:00,90.1,30.6,29.88,SW,221,8.0,10.0,12,0.00,,,0.00,Wunderground v.1.15,2013-03-30 23:09:00,
2013-03-30 16:14:00,90.0,30.6,29.88,WSW,240,2.0,11.0,12,0.00,,,0.00,Wunderground v.1.15,2013-03-30 23:14:00,
2013-03-30 16:19:00,90.1,26.2,29.88,West,263,6.0,11.0,10,0.00,,,0.00,Wunderground v.1.15,2013-03-30 23:19:00,
2013-03-30 16:24:00,90.0,28.4,29.88,WNW,289,6.0,7.0,11,0.00,,,0.00,Wunderground v.1.15,2013-03-30 23:24:00,
2013-03-30 16:29:00,90.2,30.7,29.87,SW,230,6.0,11.0,12,0.00,,,0.00,Wunderground v.1.15,2013-03-30 23:29:00,
2013-03-30 16:34:00,90.1,28.5,29.87,West,262,7.0,11.0,11,0.00,,,0.00,Wunderground v.1.15,2013-03-30 23:34:00,
2013-03-30 16:40:00,89.9,32.5,29.87,WSW,258,5.0,11.0,13,0.00,,,0.00,Wunderground v.1.15,2013-03-30 23:40:00,
2013-03-30 16:45:00,89.9,30.5,29.87,WSW,243,2.0,8.0,12,0.00,,,0.00,Wunderground v.1.15,2013-03-30 23:45:00,
2013-03-30 16:50:00,90.2,30.7,29.87,West,273,3.0,8.0,12,0.00,,,0.00,Wunderground v.1.15,2013-03-30 23:50:00,
2013-03-30 16:55:00,90.1,26.2,29.87,West,267,6.0,7.0,10,0.00,,,0.00,Wunderground v.1.15,2013-03-30 23:55:00,
2013-03-30 17:00:00,90.0,28.4,29.86,WSW,248,1.0,7.0,11,0.00,,,0.00,Wunderground v.1.15,2013-03-31 00:00:00,
2013-03-30 17:05:00,90.1,26.2,29.86,West,269,5.0,7.0,10,0.00,,,0.00,Wunderground v.1.15,2013-03-31 00:05:00,
2013-03-30 17:10:00,90.0,30.6,29.86,West,260,6.0,8.0,12,0.00,,,0.00,Wunderground v.1.15,2013-03-31 00:10:00,
2013-03-30 17:15:00,90.0,28.4,29.86,West,261,4.0,9.0,11,0.00,,,0.00,Wunderground v.1.15,2013-03-31 00:15:00,
2013-03-30 17:20:00,90.4,28.7,29.86,West,259,6.0,9.0,11,0.00,,,0.00,Wunderground v.1.15,2013-03-31 00:20:00,
2013-03-30 17:25:00,89.9,28.3,29.86,WNW,289,4.0,6.0,11,0.00,,,0.00,Wunderground v.1.15,2013-03-31 00:25:00,
2013-03-30 17:30:00,89.4,30.1,29.86,WSW,252,5.0,8.0,12,0.00,,,0.00,Wunderground v.1.15,2013-03-31 00:30:00,
2013-03-30 17:35:00,89.4,30.1,29.86,West,271,3.0,6.0,12,0.00,,,0.00,Wunderground v.1.15,2013-03-31 00:35:00,
2013-03-30 17:40:00,89.2,31.9,29.86,WSW,239,2.0,7.0,13,0.00,,,0.00,Wunderground v.1.15,2013-03-31 00:40:00,
2013-03-30 17:45:00,89.4,30.1,29.86,West,279,2.0,5.0,12,0.00,,,0.00,Wunderground v.1.15,2013-03-31 00:45:00,
2013-03-30 17:50:00,89.4,32.1,29.86,West,269,3.0,5.0,13,0.00,,,0.00,Wunderground v.1.15,2013-03-31 00:50:00,
2013-03-30 17:55:00,89.1,35.4,29.86,West,280,3.0,5.0,15,0.00,,,0.00,Wunderground v.1.15,2013-03-31 00:55:00,
2013-03-30 18:00:00,89.0,33.6,29.86,WSW,257,4.0,5.0,14,0.00,,,0.00,Wunderground v.1.15,2013-03-31 01:00:00,
2013-03-30 18:05:00,88.6,35.0,29.86,West,260,1.0,5.0,15,0.00,,,0.00,Wunderground v.1.15,2013-03-31 01:05:00,
2013-03-30 18:10:00,88.4,38.0,29.86,West,262,1.0,3.0,17,0.00,,,0.00,Wunderground v.1.15,2013-03-31 01:10:00,
2013-03-30 18:15:00,88.3,38.0,29.86,WSW,256,1.0,4.0,17,0.00,,,0.00,Wunderground v.1.15,2013-03-31 01:15:00,
2013-03-30 18:20:00,88.5,34.9,29.86,West,277,0.0,1.0,15,0.00,,,0.00,Wunderground v.1.15,2013-03-31 01:20:00,
2013-03-30 18:25:00,89.0,37.0,29.86,WSW,253,0.0,1.0,16,0.00,,,0.00,Wunderground v.1.15,2013-03-31 01:25:00,
2013-03-30 18:30:00,88.8,35.2,29.86,West,268,0.0,0.0,15,0.00,,,0.00,Wunderground v.1.15,2013-03-31 01:30:00,
2013-03-30 18:35:00,88.3,36.4,29.86,West,259,0.0,1.0,16,0.00,,,0.00,Wunderground v.1.15,2013-03-31 01:35:00,
2013-03-30 18:40:00,87.6,34.2,29.86,West,259,0.0,1.0,15,0.00,,,0.00,Wunderground v.1.15,2013-03-31 01:40:00,
2013-03-30 18:45:00,86.7,35.1,29.86,WSW,249,0.0,1.0,16,0.00,,,0.00,Wunderground v.1.15,2013-03-31 01:45:00,
2013-03-30 18:50:00,85.9,36.0,29.86,WSW,242,0.0,0.0,17,0.00,,,0.00,Wunderground v.1.15,2013-03-31 01:50:00,
2013-03-30 18:55:00,85.1,35.4,29.86,SW,231,0.0,1.0,17,0.00,,,0.00,Wunderground v.1.15,2013-03-31 01:55:00,
2013-03-30 19:00:00,84.2,36.1,29.86,SW,229,0.0,0.0,18,0.00,,,0.00,Wunderground v.1.15,2013-03-31 02:00:00,
2013-03-30 19:05:00,83.3,38.0,29.86,SW,229,0.0,0.0,20,0.00,,,0.00,Wunderground v.1.15,2013-03-31 02:05:00,
2013-03-30 19:10:00,82.3,37.2,29.86,SW,229,0.0,0.0,20,0.00,,,0.00,Wunderground v.1.15,2013-03-31 02:10:00,
2013-03-30 19:15:00,81.5,35.2,29.86,SW,229,0.0,0.0,19,0.00,,,0.00,Wunderground v.1.15,2013-03-31 02:15:00,
2013-03-30 19:20:00,81.1,32.1,29.86,SW,229,0.0,0.0,17,0.00,,,0.00,Wunderground v.1.15,2013-03-31 02:20:00,
2013-03-30 19:25:00,80.7,33.2,29.86,SW,229,0.0,1.0,18,0.00,,,0.00,Wunderground v.1.15,2013-03-31 02:25:00,
2013-03-30 19:30:00,80.2,34.2,29.86,SW,229,0.0,0.0,19,0.00,,,0.00,Wunderground v.1.15,2013-03-31 02:30:00,
2013-03-30 19:36:00,79.6,35.0,29.87,SW,229,0.0,0.0,20,0.00,,,0.00,Wunderground v.1.15,2013-03-31 02:36:00,
2013-03-30 19:41:00,78.8,34.3,29.86,SW,229,0.0,0.0,20,0.00,,,0.00,Wunderground v.1.15,2013-03-31 02:41:00,
2013-03-30 19:46:00,78.3,33.9,29.87,SW,222,0.0,1.0,20,0.00,,,0.00,Wunderground v.1.15,2013-03-31 02:46:00,
2013-03-30 19:51:00,78.2,35.0,29.87,SSE,155,0.0,1.0,21,0.00,,,0.00,Wunderground v.1.15,2013-03-31 02:51:00,
2013-03-30 19:56:00,78.3,35.1,29.87,SW,231,1.0,2.0,21,0.00,,,0.00,Wunderground v.1.15,2013-03-31 02:56:00,
2013-03-30 20:01:00,78.2,37.4,29.87,SSE,150,0.0,1.0,23,0.00,,,0.00,Wunderground v.1.15,2013-03-31 03:01:00,
2013-03-30 20:06:00,78.1,37.3,29.87,SSE,148,1.0,2.0,23,0.00,,,0.00,Wunderground v.1.15,2013-03-31 03:06:00,
2013-03-30 20:11:00,78.2,37.4,29.87,SSE,166,0.0,1.0,23,0.00,,,0.00,Wunderground v.1.15,2013-03-31 03:11:00,
2013-03-30 20:16:00,78.3,38.5,29.87,SSW,203,0.0,2.0,24,0.00,,,0.00,Wunderground v.1.15,2013-03-31 03:16:00,
2013-03-30 20:21:00,78.4,38.6,29.88,South,174,0.0,1.0,24,0.00,,,0.00,Wunderground v.1.15,2013-03-31 03:21:00,
2013-03-30 20:26:00,78.5,38.7,29.88,SW,222,3.0,3.0,24,0.00,,,0.00,Wunderground v.1.15,2013-03-31 03:26:00,
2013-03-30 20:31:00,78.6,38.8,29.88,SE,142,0.0,3.0,24,0.00,,,0.00,Wunderground v.1.15,2013-03-31 03:31:00,
2013-03-30 20:36:00,78.5,38.7,29.88,SSE,148,2.0,3.0,24,0.00,,,0.00,Wunderground v.1.15,2013-03-31 03:36:00,
2013-03-30 20:41:00,78.2,39.5,29.88,South,174,1.0,3.0,25,0.00,,,0.00,Wunderground v.1.15,2013-03-31 03:41:00,
2013-03-30 20:46:00,77.9,40.2,29.88,SSW,201,1.0,3.0,26,0.00,,,0.00,Wunderground v.1.15,2013-03-31 03:46:00,
2013-03-30 20:51:00,77.6,39.0,29.88,SSE,165,0.0,3.0,25,0.00,,,0.00,Wunderground v.1.15,2013-03-31 03:51:00,
2013-03-30 20:56:00,77.3,39.7,29.89,SSW,193,1.0,3.0,26,0.00,,,0.00,Wunderground v.1.15,2013-03-31 03:56:00,
2013-03-30 21:00:00,77.2,39.6,29.89,SW,215,0.0,3.0,26,0.00,,,0.00,Wunderground v.1.15,2013-03-31 04:00:00,
2013-03-30 21:05:00,77.0,39.5,29.89,South,186,1.0,3.0,26,0.00,,,0.00,Wunderground v.1.15,2013-03-31 04:05:00,
2013-03-30 21:10:00,76.8,39.3,29.89,SW,226,0.0,1.0,26,0.00,,,0.00,Wunderground v.1.15,2013-03-31 04:10:00,
2013-03-30 21:15:00,76.6,39.1,29.89,SE,143,0.0,4.0,26,0.00,,,0.00,Wunderground v.1.15,2013-03-31 04:15:00,
2013-03-30 21:20:00,76.4,39.0,29.89,WSW,257,0.0,1.0,26,0.00,,,0.00,Wunderground v.1.15,2013-03-31 04:20:00,
2013-03-30 21:25:00,76.4,39.0,29.89,SSE,159,1.0,4.0,26,0.00,,,0.00,Wunderground v.1.15,2013-03-31 04:25:00,
2013-03-30 21:30:00,76.4,38.0,29.89,SSW,208,0.0,1.0,25,0.00,,,0.00,Wunderground v.1.15,2013-03-31 04:30:00,
2013-03-30 21:35:00,76.4,38.0,29.90,SSE,167,0.0,2.0,25,0.00,,,0.00,Wunderground v.1.15,2013-03-31 04:35:00,
2013-03-30 21:40:00,76.4,36.9,29.90,ESE,110,0.0,0.0,24,0.00,,,0.00,Wunderground v.1.15,2013-03-31 04:40:00,
2013-03-30 21:45:00,76.5,37.0,29.90,ESE,123,1.0,1.0,24,0.00,,,0.00,Wunderground v.1.15,2013-03-31 04:45:00,
2013-03-30 21:50:00,76.2,36.8,29.90,ESE,123,1.0,1.0,24,0.00,,,0.00,Wunderground v.1.15,2013-03-31 04:50:00,
2013-03-30 21:55:00,75.8,36.4,29.90,SSW,204,0.0,2.0,24,0.00,,,0.00,Wunderground v.1.15,2013-03-31 04:55:00,
2013-03-30 22:00:00,75.8,36.4,29.90,ESE,121,0.0,1.0,24,0.00,,,0.00,Wunderground v.1.15,2013-03-31 05:00:00,
2013-03-30 22:05:00,75.7,36.3,29.90,ESE,123,0.0,1.0,24,0.00,,,0.00,Wunderground v.1.15,2013-03-31 05:05:00,
2013-03-30 22:10:00,75.4,36.1,29.90,ESE,113,0.0,1.0,24,0.00,,,0.00,Wunderground v.1.15,2013-03-31 05:10:00,
2013-03-30 22:15:00,75.0,35.7,29.90,ESE,121,0.0,2.0,24,0.00,,,0.00,Wunderground v.1.15,2013-03-31 05:15:00,
2013-03-30 22:20:00,74.7,35.5,29.90,ESE,123,0.0,1.0,24,0.00,,,0.00,Wunderground v.1.15,2013-03-31 05:20:00,
2013-03-30 22:25:00,74.3,35.2,29.90,ESE,123,0.0,1.0,24,0.00,,,0.00,Wunderground v.1.15,2013-03-31 05:25:00,
2013-03-30 22:30:00,73.8,35.8,29.90,ESE,122,0.0,0.0,25,0.00,,,0.00,Wunderground v.1.15,2013-03-31 05:30:00,
2013-03-30 22:35:00,73.4,35.4,29.90,ESE,123,0.0,0.0,25,0.00,,,0.00,Wunderground v.1.15,2013-03-31 05:35:00,
2013-03-30 22:40:00,72.7,34.8,29.90,SE,127,0.0,0.0,25,0.00,,,0.00,Wunderground v.1.15,2013-03-31 05:40:00,
2013-03-30 22:45:00,72.9,36.0,29.91,SSW,193,0.0,1.0,26,0.00,,,0.00,Wunderground v.1.15,2013-03-31 05:45:00,
2013-03-30 22:50:00,72.9,36.0,29.91,SSW,193,0.0,0.0,26,0.00,,,0.00,Wunderground v.1.15,2013-03-31 05:50:00,
2013-03-30 22:55:00,72.5,35.6,29.91,South,191,0.0,0.0,26,0.00,,,0.00,Wunderground v.1.15,2013-03-31 05:55:00,
2013-03-30 23:00:00,72.0,35.2,29.91,South,191,0.0,0.0,26,0.00,,,0.00,Wunderground v.1.15,2013-03-31 06:00:00,
2013-03-30 23:05:00,71.1,41.3,29.91,SSW,193,0.0,0.0,34,0.00,,,0.00,Wunderground v.1.15,2013-03-31 06:05:00,
2013-03-30 23:10:00,70.1,41.2,29.91,SSW,193,0.0,0.0,35,0.00,,,0.00,Wunderground v.1.15,2013-03-31 06:10:00,
2013-03-30 23:15:00,69.6,39.2,29.91,SE,134,0.0,0.0,33,0.00,,,0.00,Wunderground v.1.15,2013-03-31 06:15:00,
2013-03-30 23:20:00,69.4,38.2,29.91,SE,134,0.0,0.0,32,0.00,,,0.00,Wunderground v.1.15,2013-03-31 06:20:00,
2013-03-30 23:25:00,69.5,37.5,29.91,SE,134,0.0,0.0,31,0.00,,,0.00,Wunderground v.1.15,2013-03-31 06:25:00,
2013-03-30 23:30:00,69.5,35.8,29.91,SE,134,0.0,0.0,29,0.00,,,0.00,Wunderground v.1.15,2013-03-31 06:30:00,
2013-03-30 23:36:00,69.4,35.7,29.91,SSW,193,0.0,2.0,29,0.00,,,0.00,Wunderground v.1.15,2013-03-31 06:36:00,
2013-03-30 23:41:00,69.6,35.0,29.91,SSW,195,0.0,0.0,28,0.00,,,0.00,Wunderground v.1.15,2013-03-31 06:41:00,
2013-03-30 23:46:00,69.2,41.1,29.91,SSW,193,0.0,1.0,36,0.00,,,0.00,Wunderground v.1.15,2013-03-31 06:46:00,
2013-03-30 23:50:00,67.9,41.3,29.91,SSW,193,0.0,0.0,38,0.00,,,0.00,Wunderground v.1.15,2013-03-31 06:50:00,
2013-03-30 23:55:00,67.2,40.0,29.91,SSW,193,0.0,0.0,37,0.00,,,0.00,Wunderground v.1.15,2013-03-31 06:55:00,